sensor_id;sensor_type;location;lat;lon;timestamp;temperature;humidity
21830;DHT22;11077;50.264;6.798;2023-05-29T00:02:39;13.10;99.90
21830;DHT22;11077;50.264;6.798;2023-05-29T00:05:20;13.00;99.90
21830;DHT22;11077;50.264;6.798;2023-05-29T00:07:48;13.00;99.90
21830;DHT22;11077;50.264;6.798;2023-05-29T00:10:30;12.90;99.90
21830;DHT22;11077;50.264;6.798;2023-05-29T00:12:58;12.90;99.90
21830;DHT22;11077;50.264;6.798;2023-05-29T00:15:40;12.70;99.90
21830;DHT22;11077;50.264;6.798;2023-05-29T00:18:08;12.90;99.90
21830;DHT22;11077;50.264;6.798;2023-05-29T00:20:35;12.90;99.90
21830;DHT22;11077;50.264;6.798;2023-05-29T00:23:02;12.80;99.90
21830;DHT22;11077;50.264;6.798;2023-05-29T00:25:31;12.80;99.90
21830;DHT22;11077;50.264;6.798;2023-05-29T00:27:59;12.70;99.90
21830;DHT22;11077;50.264;6.798;2023-05-29T00:30:27;12.70;99.90
21830;DHT22;11077;50.264;6.798;2023-05-29T00:32:58;12.70;99.90
21830;DHT22;11077;50.264;6.798;2023-05-29T00:35:25;12.60;99.90
21830;DHT22;11077;50.264;6.798;2023-05-29T00:37:52;12.70;99.90
21830;DHT22;11077;50.264;6.798;2023-05-29T00:40:20;12.70;99.90
21830;DHT22;11077;50.264;6.798;2023-05-29T00:42:47;12.60;99.90
21830;DHT22;11077;50.264;6.798;2023-05-29T00:45:16;12.60;99.90
21830;DHT22;11077;50.264;6.798;2023-05-29T00:47:44;12.60;99.90
21830;DHT22;11077;50.264;6.798;2023-05-29T00:50:28;12.50;99.90
21830;DHT22;11077;50.264;6.798;2023-05-29T00:52:58;12.50;99.90
21830;DHT22;11077;50.264;6.798;2023-05-29T00:55:27;12.50;99.90
21830;DHT22;11077;50.264;6.798;2023-05-29T00:57:54;12.50;99.90
21830;DHT22;11077;50.264;6.798;2023-05-29T01:00:22;12.50;99.90
21830;DHT22;11077;50.264;6.798;2023-05-29T01:02:49;12.50;99.90
21830;DHT22;11077;50.264;6.798;2023-05-29T01:05:18;12.40;99.90
21830;DHT22;11077;50.264;6.798;2023-05-29T01:07:48;12.40;99.90
21830;DHT22;11077;50.264;6.798;2023-05-29T01:10:16;12.30;99.90
21830;DHT22;11077;50.264;6.798;2023-05-29T01:12:49;12.30;99.90
21830;DHT22;11077;50.264;6.798;2023-05-29T01:15:31;12.20;99.90
21830;DHT22;11077;50.264;6.798;2023-05-29T01:18:12;12.10;99.90
21830;DHT22;11077;50.264;6.798;2023-05-29T01:20:50;12.10;99.90
21830;DHT22;11077;50.264;6.798;2023-05-29T01:23:37;12.10;99.90
21830;DHT22;11077;50.264;6.798;2023-05-29T01:26:20;12.00;99.90
21830;DHT22;11077;50.264;6.798;2023-05-29T01:28:57;11.90;99.90
21830;DHT22;11077;50.264;6.798;2023-05-29T01:31:26;11.90;99.90
21830;DHT22;11077;50.264;6.798;2023-05-29T01:33:58;11.80;99.90
21830;DHT22;11077;50.264;6.798;2023-05-29T01:36:26;11.70;99.90
21830;DHT22;11077;50.264;6.798;2023-05-29T01:38:56;11.60;99.90
21830;DHT22;11077;50.264;6.798;2023-05-29T01:41:24;11.60;99.90
21830;DHT22;11077;50.264;6.798;2023-05-29T01:43:56;11.70;99.90
21830;DHT22;11077;50.264;6.798;2023-05-29T01:46:25;11.50;99.90
21830;DHT22;11077;50.264;6.798;2023-05-29T01:48:53;11.50;99.90
21830;DHT22;11077;50.264;6.798;2023-05-29T01:51:34;11.50;99.90
21830;DHT22;11077;50.264;6.798;2023-05-29T01:54:02;11.50;99.90
21830;DHT22;11077;50.264;6.798;2023-05-29T01:56:31;11.50;99.90
21830;DHT22;11077;50.264;6.798;2023-05-29T01:59:02;11.60;99.90
21830;DHT22;11077;50.264;6.798;2023-05-29T02:01:31;11.50;99.90
21830;DHT22;11077;50.264;6.798;2023-05-29T02:04:00;11.40;99.90
21830;DHT22;11077;50.264;6.798;2023-05-29T02:06:33;11.30;99.90
21830;DHT22;11077;50.264;6.798;2023-05-29T02:09:01;11.30;99.90
21830;DHT22;11077;50.264;6.798;2023-05-29T02:11:30;11.30;99.90
21830;DHT22;11077;50.264;6.798;2023-05-29T02:13:57;11.20;99.90
21830;DHT22;11077;50.264;6.798;2023-05-29T02:16:29;11.20;99.90
21830;DHT22;11077;50.264;6.798;2023-05-29T02:19:00;11.20;99.90
21830;DHT22;11077;50.264;6.798;2023-05-29T02:21:27;11.20;99.90
21830;DHT22;11077;50.264;6.798;2023-05-29T02:24:01;11.20;99.90
21830;DHT22;11077;50.264;6.798;2023-05-29T02:26:43;11.10;99.90
21830;DHT22;11077;50.264;6.798;2023-05-29T02:29:10;11.10;99.90
21830;DHT22;11077;50.264;6.798;2023-05-29T02:31:42;11.00;99.90
21830;DHT22;11077;50.264;6.798;2023-05-29T02:34:11;11.00;99.90
21830;DHT22;11077;50.264;6.798;2023-05-29T02:36:38;11.00;99.90
21830;DHT22;11077;50.264;6.798;2023-05-29T02:39:08;11.00;99.90
21830;DHT22;11077;50.264;6.798;2023-05-29T02:41:49;11.00;99.90
21830;DHT22;11077;50.264;6.798;2023-05-29T02:44:16;11.00;99.90
21830;DHT22;11077;50.264;6.798;2023-05-29T02:46:45;11.00;99.90
21830;DHT22;11077;50.264;6.798;2023-05-29T02:49:14;10.90;99.90
21830;DHT22;11077;50.264;6.798;2023-05-29T02:51:41;11.00;99.90
21830;DHT22;11077;50.264;6.798;2023-05-29T02:54:09;11.00;99.90
21830;DHT22;11077;50.264;6.798;2023-05-29T02:56:37;10.90;99.90
21830;DHT22;11077;50.264;6.798;2023-05-29T02:59:05;10.90;99.90
21830;DHT22;11077;50.264;6.798;2023-05-29T03:01:32;10.90;99.90
21830;DHT22;11077;50.264;6.798;2023-05-29T03:04:02;11.00;99.90
21830;DHT22;11077;50.264;6.798;2023-05-29T03:06:36;11.00;99.90
21830;DHT22;11077;50.264;6.798;2023-05-29T03:09:06;11.00;99.90
21830;DHT22;11077;50.264;6.798;2023-05-29T03:11:35;11.00;99.90
21830;DHT22;11077;50.264;6.798;2023-05-29T03:14:03;11.00;99.90
21830;DHT22;11077;50.264;6.798;2023-05-29T03:16:36;10.90;99.90
21830;DHT22;11077;50.264;6.798;2023-05-29T03:19:15;11.00;99.90
21830;DHT22;11077;50.264;6.798;2023-05-29T03:21:42;11.00;99.90
21830;DHT22;11077;50.264;6.798;2023-05-29T03:24:11;10.90;99.90
21830;DHT22;11077;50.264;6.798;2023-05-29T03:26:39;10.90;99.90
21830;DHT22;11077;50.264;6.798;2023-05-29T03:29:10;10.90;99.90
21830;DHT22;11077;50.264;6.798;2023-05-29T03:31:37;10.80;99.90
21830;DHT22;11077;50.264;6.798;2023-05-29T03:34:06;10.80;99.90
21830;DHT22;11077;50.264;6.798;2023-05-29T03:36:48;10.70;99.90
21830;DHT22;11077;50.264;6.798;2023-05-29T03:39:15;10.70;99.90
21830;DHT22;11077;50.264;6.798;2023-05-29T03:41:42;10.60;99.90
21830;DHT22;11077;50.264;6.798;2023-05-29T03:44:12;10.70;99.90
21830;DHT22;11077;50.264;6.798;2023-05-29T03:46:41;10.60;99.90
21830;DHT22;11077;50.264;6.798;2023-05-29T03:49:14;10.60;99.90
21830;DHT22;11077;50.264;6.798;2023-05-29T03:51:43;10.60;99.90
21830;DHT22;11077;50.264;6.798;2023-05-29T03:54:12;10.50;99.90
21830;DHT22;11077;50.264;6.798;2023-05-29T03:56:39;10.50;99.90
21830;DHT22;11077;50.264;6.798;2023-05-29T03:59:07;10.50;99.90
21830;DHT22;11077;50.264;6.798;2023-05-29T04:01:34;10.50;99.90
21830;DHT22;11077;50.264;6.798;2023-05-29T04:04:02;10.40;99.90
21830;DHT22;11077;50.264;6.798;2023-05-29T04:06:34;10.40;99.90
21830;DHT22;11077;50.264;6.798;2023-05-29T04:09:04;10.30;99.90
21830;DHT22;11077;50.264;6.798;2023-05-29T04:11:33;10.30;99.90
21830;DHT22;11077;50.264;6.798;2023-05-29T04:14:04;10.30;99.90
21830;DHT22;11077;50.264;6.798;2023-05-29T04:16:32;10.30;99.90
21830;DHT22;11077;50.264;6.798;2023-05-29T04:19:01;10.30;99.90
21830;DHT22;11077;50.264;6.798;2023-05-29T04:21:33;10.30;99.90
21830;DHT22;11077;50.264;6.798;2023-05-29T04:24:01;10.30;99.90
21830;DHT22;11077;50.264;6.798;2023-05-29T04:26:28;10.20;99.90
21830;DHT22;11077;50.264;6.798;2023-05-29T04:28:58;10.20;99.90
21830;DHT22;11077;50.264;6.798;2023-05-29T04:31:26;10.20;99.90
21830;DHT22;11077;50.264;6.798;2023-05-29T04:33:55;10.20;99.90
21830;DHT22;11077;50.264;6.798;2023-05-29T04:36:24;10.10;99.90
21830;DHT22;11077;50.264;6.798;2023-05-29T04:39:00;10.10;99.90
21830;DHT22;11077;50.264;6.798;2023-05-29T04:41:30;10.10;99.90
21830;DHT22;11077;50.264;6.798;2023-05-29T04:44:01;10.20;99.90
21830;DHT22;11077;50.264;6.798;2023-05-29T04:46:38;10.20;99.90
21830;DHT22;11077;50.264;6.798;2023-05-29T04:49:05;10.10;99.90
21830;DHT22;11077;50.264;6.798;2023-05-29T04:51:34;10.10;99.90
21830;DHT22;11077;50.264;6.798;2023-05-29T04:54:03;10.10;99.90
21830;DHT22;11077;50.264;6.798;2023-05-29T04:56:31;10.20;99.90
21830;DHT22;11077;50.264;6.798;2023-05-29T04:58:58;10.20;99.90
21830;DHT22;11077;50.264;6.798;2023-05-29T05:01:26;10.20;99.90
21830;DHT22;11077;50.264;6.798;2023-05-29T05:03:54;10.20;99.90
21830;DHT22;11077;50.264;6.798;2023-05-29T05:06:22;10.20;99.90
21830;DHT22;11077;50.264;6.798;2023-05-29T05:08:52;10.20;99.90
21830;DHT22;11077;50.264;6.798;2023-05-29T05:11:24;10.20;99.90
21830;DHT22;11077;50.264;6.798;2023-05-29T05:13:54;10.20;99.90
21830;DHT22;11077;50.264;6.798;2023-05-29T05:16:21;10.30;99.90
21830;DHT22;11077;50.264;6.798;2023-05-29T05:18:48;10.40;99.90
21830;DHT22;11077;50.264;6.798;2023-05-29T05:21:16;10.30;99.90
21830;DHT22;11077;50.264;6.798;2023-05-29T05:23:45;10.30;99.90
21830;DHT22;11077;50.264;6.798;2023-05-29T09:45:10;21.20;99.90
21830;DHT22;11077;50.264;6.798;2023-05-29T09:47:39;21.30;99.90
21830;DHT22;11077;50.264;6.798;2023-05-29T09:50:07;21.50;99.90
21830;DHT22;11077;50.264;6.798;2023-05-29T09:52:44;21.60;99.90
21830;DHT22;11077;50.264;6.798;2023-05-29T09:55:13;21.80;99.90
21830;DHT22;11077;50.264;6.798;2023-05-29T09:57:42;21.90;99.90
21830;DHT22;11077;50.264;6.798;2023-05-29T10:00:12;22.10;99.90
21830;DHT22;11077;50.264;6.798;2023-05-29T10:02:41;22.30;99.90
21830;DHT22;11077;50.264;6.798;2023-05-29T10:05:09;22.40;99.90
21830;DHT22;11077;50.264;6.798;2023-05-29T10:07:40;22.50;99.90
21830;DHT22;11077;50.264;6.798;2023-05-29T10:10:11;22.70;99.90
21830;DHT22;11077;50.264;6.798;2023-05-29T10:12:44;22.70;99.90
21830;DHT22;11077;50.264;6.798;2023-05-29T10:15:15;22.80;99.90
21830;DHT22;11077;50.264;6.798;2023-05-29T10:17:49;22.90;99.90
21830;DHT22;11077;50.264;6.798;2023-05-29T10:20:19;23.00;99.90
21830;DHT22;11077;50.264;6.798;2023-05-29T10:22:52;23.00;99.90
21830;DHT22;11077;50.264;6.798;2023-05-29T10:25:27;23.00;99.90
21830;DHT22;11077;50.264;6.798;2023-05-29T10:27:59;23.10;99.90
21830;DHT22;11077;50.264;6.798;2023-05-29T10:30:33;23.10;99.90
21830;DHT22;11077;50.264;6.798;2023-05-29T10:33:14;23.30;99.90
21830;DHT22;11077;50.264;6.798;2023-05-29T10:35:51;23.30;99.90
21830;DHT22;11077;50.264;6.798;2023-05-29T10:38:20;23.20;99.90
21830;DHT22;11077;50.264;6.798;2023-05-29T10:40:48;23.20;99.90
21830;DHT22;11077;50.264;6.798;2023-05-29T10:43:33;23.20;99.90
21830;DHT22;11077;50.264;6.798;2023-05-29T10:46:05;23.00;99.90
21830;DHT22;11077;50.264;6.798;2023-05-29T10:48:41;22.90;99.90
21830;DHT22;11077;50.264;6.798;2023-05-29T10:51:25;23.10;99.90
21830;DHT22;11077;50.264;6.798;2023-05-29T10:53:54;23.00;99.90
21830;DHT22;11077;50.264;6.798;2023-05-29T10:56:23;23.20;99.90
21830;DHT22;11077;50.264;6.798;2023-05-29T10:58:57;23.40;99.90
21830;DHT22;11077;50.264;6.798;2023-05-29T11:01:29;23.40;99.90
21830;DHT22;11077;50.264;6.798;2023-05-29T11:04:26;23.50;99.90
21830;DHT22;11077;50.264;6.798;2023-05-29T11:06:54;23.80;99.90
21830;DHT22;11077;50.264;6.798;2023-05-29T11:09:30;23.70;99.90
21830;DHT22;11077;50.264;6.798;2023-05-29T11:12:15;23.90;99.90
21830;DHT22;11077;50.264;6.798;2023-05-29T11:14:55;24.20;99.90
21830;DHT22;11077;50.264;6.798;2023-05-29T11:17:31;24.10;99.90
21830;DHT22;11077;50.264;6.798;2023-05-29T11:20:03;24.20;99.90
21830;DHT22;11077;50.264;6.798;2023-05-29T11:23:01;24.30;99.90
21830;DHT22;11077;50.264;6.798;2023-05-29T11:25:32;24.60;99.90
21830;DHT22;11077;50.264;6.798;2023-05-29T11:28:00;24.50;99.90
21830;DHT22;11077;50.264;6.798;2023-05-29T11:30:29;24.60;99.90
21830;DHT22;11077;50.264;6.798;2023-05-29T11:33:02;24.60;99.90
21830;DHT22;11077;50.264;6.798;2023-05-29T11:35:34;24.50;99.90
21830;DHT22;11077;50.264;6.798;2023-05-29T11:38:04;24.70;99.90
21830;DHT22;11077;50.264;6.798;2023-05-29T11:40:35;24.50;99.90
21830;DHT22;11077;50.264;6.798;2023-05-29T11:43:04;24.40;99.90
21830;DHT22;11077;50.264;6.798;2023-05-29T11:45:33;24.30;99.90
21830;DHT22;11077;50.264;6.798;2023-05-29T11:48:03;24.30;99.90
21830;DHT22;11077;50.264;6.798;2023-05-29T11:50:32;24.60;99.90
21830;DHT22;11077;50.264;6.798;2023-05-29T11:53:00;24.80;99.90
21830;DHT22;11077;50.264;6.798;2023-05-29T11:55:28;24.90;99.90
21830;DHT22;11077;50.264;6.798;2023-05-29T11:57:59;24.90;99.90
21830;DHT22;11077;50.264;6.798;2023-05-29T12:00:31;25.10;99.90
21830;DHT22;11077;50.264;6.798;2023-05-29T12:02:59;25.10;99.90
21830;DHT22;11077;50.264;6.798;2023-05-29T12:05:32;25.10;99.90
21830;DHT22;11077;50.264;6.798;2023-05-29T12:08:03;25.10;99.90
21830;DHT22;11077;50.264;6.798;2023-05-29T12:10:35;25.00;99.90
21830;DHT22;11077;50.264;6.798;2023-05-29T12:13:03;25.10;99.90
21830;DHT22;11077;50.264;6.798;2023-05-29T12:15:30;24.90;99.90
21830;DHT22;11077;50.264;6.798;2023-05-29T12:18:12;25.10;99.90
21830;DHT22;11077;50.264;6.798;2023-05-29T12:21:01;25.40;99.90
21830;DHT22;11077;50.264;6.798;2023-05-29T12:23:36;25.30;99.90
21830;DHT22;11077;50.264;6.798;2023-05-29T12:26:09;25.30;99.90
21830;DHT22;11077;50.264;6.798;2023-05-29T12:28:43;25.30;99.90
21830;DHT22;11077;50.264;6.798;2023-05-29T12:31:11;25.30;99.90
21830;DHT22;11077;50.264;6.798;2023-05-29T12:33:43;25.30;99.90
21830;DHT22;11077;50.264;6.798;2023-05-29T12:36:12;25.50;99.90
21830;DHT22;11077;50.264;6.798;2023-05-29T12:38:48;25.00;99.90
21830;DHT22;11077;50.264;6.798;2023-05-29T12:41:24;24.70;99.90
21830;DHT22;11077;50.264;6.798;2023-05-29T12:43:53;24.50;99.90
21830;DHT22;11077;50.264;6.798;2023-05-29T12:46:23;24.60;99.90
21830;DHT22;11077;50.264;6.798;2023-05-29T12:48:53;24.50;99.90
21830;DHT22;11077;50.264;6.798;2023-05-29T12:51:26;24.50;99.90
21830;DHT22;11077;50.264;6.798;2023-05-29T12:53:56;24.30;99.90
21830;DHT22;11077;50.264;6.798;2023-05-29T12:56:27;24.20;99.90
21830;DHT22;11077;50.264;6.798;2023-05-29T12:58:55;24.10;99.90
21830;DHT22;11077;50.264;6.798;2023-05-29T13:01:22;24.00;99.90
21830;DHT22;11077;50.264;6.798;2023-05-29T13:03:50;23.60;99.90
21830;DHT22;11077;50.264;6.798;2023-05-29T13:06:18;23.50;99.90
21830;DHT22;11077;50.264;6.798;2023-05-29T13:08:48;23.30;99.90
21830;DHT22;11077;50.264;6.798;2023-05-29T13:11:18;23.10;99.90
21830;DHT22;11077;50.264;6.798;2023-05-29T13:13:48;23.00;99.90
21830;DHT22;11077;50.264;6.798;2023-05-29T13:16:26;22.80;99.90
21830;DHT22;11077;50.264;6.798;2023-05-29T13:18:54;22.80;99.90
21830;DHT22;11077;50.264;6.798;2023-05-29T13:21:22;22.50;99.90
21830;DHT22;11077;50.264;6.798;2023-05-29T13:23:54;22.40;99.90
21830;DHT22;11077;50.264;6.798;2023-05-29T13:26:22;22.40;99.90
21830;DHT22;11077;50.264;6.798;2023-05-29T13:28:50;22.20;99.90
21830;DHT22;11077;50.264;6.798;2023-05-29T13:31:22;22.20;99.90
21830;DHT22;11077;50.264;6.798;2023-05-29T13:34:08;21.90;99.90
21830;DHT22;11077;50.264;6.798;2023-05-29T13:36:37;21.80;99.90
21830;DHT22;11077;50.264;6.798;2023-05-29T13:39:17;21.90;99.90
21830;DHT22;11077;50.264;6.798;2023-05-29T13:41:53;22.00;99.90
21830;DHT22;11077;50.264;6.798;2023-05-29T13:44:27;21.90;99.90
21830;DHT22;11077;50.264;6.798;2023-05-29T13:46:55;22.00;99.90
21830;DHT22;11077;50.264;6.798;2023-05-29T13:49:26;21.90;99.90
21830;DHT22;11077;50.264;6.798;2023-05-29T13:51:53;21.80;99.90
21830;DHT22;11077;50.264;6.798;2023-05-29T13:54:23;21.80;99.90
21830;DHT22;11077;50.264;6.798;2023-05-29T13:56:50;21.80;99.90
21830;DHT22;11077;50.264;6.798;2023-05-29T13:59:18;21.90;99.90
21830;DHT22;11077;50.264;6.798;2023-05-29T14:01:45;21.90;99.90
21830;DHT22;11077;50.264;6.798;2023-05-29T14:04:13;21.90;99.90
21830;DHT22;11077;50.264;6.798;2023-05-29T14:06:42;21.70;99.90
21830;DHT22;11077;50.264;6.798;2023-05-29T14:09:09;21.80;99.90
21830;DHT22;11077;50.264;6.798;2023-05-29T14:11:38;21.80;99.90
21830;DHT22;11077;50.264;6.798;2023-05-29T14:14:07;21.80;99.90
21830;DHT22;11077;50.264;6.798;2023-05-29T14:16:34;21.90;99.90
21830;DHT22;11077;50.264;6.798;2023-05-29T14:19:02;21.90;99.90
21830;DHT22;11077;50.264;6.798;2023-05-29T14:21:29;21.90;99.90
21830;DHT22;11077;50.264;6.798;2023-05-29T14:23:57;21.80;99.90
21830;DHT22;11077;50.264;6.798;2023-05-29T14:26:26;21.80;99.90
21830;DHT22;11077;50.264;6.798;2023-05-29T14:28:57;21.80;99.90
21830;DHT22;11077;50.264;6.798;2023-05-29T14:31:25;21.90;99.90
21830;DHT22;11077;50.264;6.798;2023-05-29T14:33:52;21.90;99.90
21830;DHT22;11077;50.264;6.798;2023-05-29T14:36:20;21.90;99.90
21830;DHT22;11077;50.264;6.798;2023-05-29T14:38:50;22.00;99.90
21830;DHT22;11077;50.264;6.798;2023-05-29T14:41:18;22.10;99.90
21830;DHT22;11077;50.264;6.798;2023-05-29T14:43:45;22.10;99.90
21830;DHT22;11077;50.264;6.798;2023-05-29T14:46:17;22.00;99.90
21830;DHT22;11077;50.264;6.798;2023-05-29T14:48:45;22.00;99.90
21830;DHT22;11077;50.264;6.798;2023-05-29T14:51:15;22.00;99.90
21830;DHT22;11077;50.264;6.798;2023-05-29T14:53:43;22.00;99.90
21830;DHT22;11077;50.264;6.798;2023-05-29T14:56:10;22.00;99.90
21830;DHT22;11077;50.264;6.798;2023-05-29T14:58:38;22.20;99.90
21830;DHT22;11077;50.264;6.798;2023-05-29T15:01:06;22.20;99.90
21830;DHT22;11077;50.264;6.798;2023-05-29T15:03:36;22.20;99.90
21830;DHT22;11077;50.264;6.798;2023-05-29T15:06:03;22.20;99.90
21830;DHT22;11077;50.264;6.798;2023-05-29T15:08:32;22.20;99.90
21830;DHT22;11077;50.264;6.798;2023-05-29T15:11:00;22.20;99.90
21830;DHT22;11077;50.264;6.798;2023-05-29T15:13:28;22.20;99.90
21830;DHT22;11077;50.264;6.798;2023-05-29T15:15:56;22.20;99.90
21830;DHT22;11077;50.264;6.798;2023-05-29T15:18:25;22.20;99.90
21830;DHT22;11077;50.264;6.798;2023-05-29T15:20:54;22.30;99.90
21830;DHT22;11077;50.264;6.798;2023-05-29T15:23:24;22.40;99.90
21830;DHT22;11077;50.264;6.798;2023-05-29T15:25:51;22.50;99.90
21830;DHT22;11077;50.264;6.798;2023-05-29T15:28:19;22.50;99.90
21830;DHT22;11077;50.264;6.798;2023-05-29T15:30:47;22.60;99.90
21830;DHT22;11077;50.264;6.798;2023-05-29T15:33:14;22.60;99.90
21830;DHT22;11077;50.264;6.798;2023-05-29T15:35:42;22.60;99.90
21830;DHT22;11077;50.264;6.798;2023-05-29T15:38:11;22.60;99.90
21830;DHT22;11077;50.264;6.798;2023-05-29T15:40:39;22.70;99.90
21830;DHT22;11077;50.264;6.798;2023-05-29T15:43:07;22.80;99.90
21830;DHT22;11077;50.264;6.798;2023-05-29T15:45:34;22.90;99.90
21830;DHT22;11077;50.264;6.798;2023-05-29T15:48:01;22.90;99.90
21830;DHT22;11077;50.264;6.798;2023-05-29T15:50:28;22.70;99.90
21830;DHT22;11077;50.264;6.798;2023-05-29T15:52:55;22.50;99.90
21830;DHT22;11077;50.264;6.798;2023-05-29T15:55:24;22.50;99.90
21830;DHT22;11077;50.264;6.798;2023-05-29T15:57:51;22.50;99.90
21830;DHT22;11077;50.264;6.798;2023-05-29T16:00:19;22.40;99.90
21830;DHT22;11077;50.264;6.798;2023-05-29T16:02:47;22.30;99.90
21830;DHT22;11077;50.264;6.798;2023-05-29T16:05:15;22.10;99.90
21830;DHT22;11077;50.264;6.798;2023-05-29T16:07:42;22.10;99.90
21830;DHT22;11077;50.264;6.798;2023-05-29T16:10:13;22.20;99.90
21830;DHT22;11077;50.264;6.798;2023-05-29T16:12:44;22.10;99.90
21830;DHT22;11077;50.264;6.798;2023-05-29T16:15:14;21.90;99.90
21830;DHT22;11077;50.264;6.798;2023-05-29T16:17:42;21.90;99.90
21830;DHT22;11077;50.264;6.798;2023-05-29T16:20:10;22.00;99.90
21830;DHT22;11077;50.264;6.798;2023-05-29T16:22:38;22.00;99.90
21830;DHT22;11077;50.264;6.798;2023-05-29T16:25:07;21.90;99.90
21830;DHT22;11077;50.264;6.798;2023-05-29T16:27:34;22.10;99.90
21830;DHT22;11077;50.264;6.798;2023-05-29T16:30:05;22.00;99.90
21830;DHT22;11077;50.264;6.798;2023-05-29T16:32:33;22.00;99.90
21830;DHT22;11077;50.264;6.798;2023-05-29T16:35:01;21.90;99.90
21830;DHT22;11077;50.264;6.798;2023-05-29T16:37:28;21.90;99.90
21830;DHT22;11077;50.264;6.798;2023-05-29T16:39:55;21.90;99.90
21830;DHT22;11077;50.264;6.798;2023-05-29T16:42:23;21.90;99.90
21830;DHT22;11077;50.264;6.798;2023-05-29T16:44:51;21.50;99.90
21830;DHT22;11077;50.264;6.798;2023-05-29T16:47:20;21.50;99.90
21830;DHT22;11077;50.264;6.798;2023-05-29T16:49:47;21.50;99.90
21830;DHT22;11077;50.264;6.798;2023-05-29T16:52:17;21.40;99.90
21830;DHT22;11077;50.264;6.798;2023-05-29T16:54:46;21.30;99.90
21830;DHT22;11077;50.264;6.798;2023-05-29T16:57:14;21.40;99.90
21830;DHT22;11077;50.264;6.798;2023-05-29T16:59:41;21.30;99.90
21830;DHT22;11077;50.264;6.798;2023-05-29T17:02:08;21.20;99.90
21830;DHT22;11077;50.264;6.798;2023-05-29T17:04:37;21.10;99.90
21830;DHT22;11077;50.264;6.798;2023-05-29T17:07:06;21.10;99.90
21830;DHT22;11077;50.264;6.798;2023-05-29T17:09:33;20.90;99.90
21830;DHT22;11077;50.264;6.798;2023-05-29T17:12:02;20.70;99.90
21830;DHT22;11077;50.264;6.798;2023-05-29T17:14:34;20.60;99.90
21830;DHT22;11077;50.264;6.798;2023-05-29T17:17:01;20.60;99.90
21830;DHT22;11077;50.264;6.798;2023-05-29T17:19:29;20.70;99.90
21830;DHT22;11077;50.264;6.798;2023-05-29T17:21:59;20.60;99.90
21830;DHT22;11077;50.264;6.798;2023-05-29T17:24:28;20.50;99.90
21830;DHT22;11077;50.264;6.798;2023-05-29T17:26:56;20.50;99.90
21830;DHT22;11077;50.264;6.798;2023-05-29T17:29:23;20.20;99.90
21830;DHT22;11077;50.264;6.798;2023-05-29T17:31:50;20.00;99.90
21830;DHT22;11077;50.264;6.798;2023-05-29T17:34:18;19.90;99.90
21830;DHT22;11077;50.264;6.798;2023-05-29T17:36:45;19.80;99.90
21830;DHT22;11077;50.264;6.798;2023-05-29T17:39:15;19.70;99.90
21830;DHT22;11077;50.264;6.798;2023-05-29T17:41:43;19.70;99.90
21830;DHT22;11077;50.264;6.798;2023-05-29T17:44:10;19.70;99.90
21830;DHT22;11077;50.264;6.798;2023-05-29T17:46:39;19.70;99.90
21830;DHT22;11077;50.264;6.798;2023-05-29T17:49:07;19.60;99.90
21830;DHT22;11077;50.264;6.798;2023-05-29T17:51:37;19.50;99.90
21830;DHT22;11077;50.264;6.798;2023-05-29T17:54:05;19.40;99.90
21830;DHT22;11077;50.264;6.798;2023-05-29T17:56:37;19.30;99.90
21830;DHT22;11077;50.264;6.798;2023-05-29T17:59:05;19.20;99.90
21830;DHT22;11077;50.264;6.798;2023-05-29T18:01:32;19.20;99.90
21830;DHT22;11077;50.264;6.798;2023-05-29T18:03:59;19.10;99.90
21830;DHT22;11077;50.264;6.798;2023-05-29T18:06:27;19.10;99.90
21830;DHT22;11077;50.264;6.798;2023-05-29T18:08:54;19.00;99.90
21830;DHT22;11077;50.264;6.798;2023-05-29T18:11:21;19.00;99.90
21830;DHT22;11077;50.264;6.798;2023-05-29T18:13:51;18.90;99.90
21830;DHT22;11077;50.264;6.798;2023-05-29T18:16:18;18.80;99.90
21830;DHT22;11077;50.264;6.798;2023-05-29T18:18:47;18.80;99.90
21830;DHT22;11077;50.264;6.798;2023-05-29T18:21:14;18.60;99.90
21830;DHT22;11077;50.264;6.798;2023-05-29T18:23:42;18.50;99.90
21830;DHT22;11077;50.264;6.798;2023-05-29T18:26:11;18.30;99.90
21830;DHT22;11077;50.264;6.798;2023-05-29T18:28:38;18.10;99.90
21830;DHT22;11077;50.264;6.798;2023-05-29T18:31:07;18.00;99.90
21830;DHT22;11077;50.264;6.798;2023-05-29T18:33:34;17.90;99.90
21830;DHT22;11077;50.264;6.798;2023-05-29T18:36:02;17.80;99.90
21830;DHT22;11077;50.264;6.798;2023-05-29T18:38:29;17.60;99.90
21830;DHT22;11077;50.264;6.798;2023-05-29T18:40:57;17.60;99.90
21830;DHT22;11077;50.264;6.798;2023-05-29T18:43:24;17.50;99.90
21830;DHT22;11077;50.264;6.798;2023-05-29T18:45:52;17.40;99.90
21830;DHT22;11077;50.264;6.798;2023-05-29T18:48:21;17.30;99.90
21830;DHT22;11077;50.264;6.798;2023-05-29T18:50:49;17.20;99.90
21830;DHT22;11077;50.264;6.798;2023-05-29T18:53:16;17.10;99.90
21830;DHT22;11077;50.264;6.798;2023-05-29T18:55:43;17.00;99.90
21830;DHT22;11077;50.264;6.798;2023-05-29T18:58:10;16.90;99.90
21830;DHT22;11077;50.264;6.798;2023-05-29T19:00:38;16.90;99.90
21830;DHT22;11077;50.264;6.798;2023-05-29T19:03:06;16.80;99.90
21830;DHT22;11077;50.264;6.798;2023-05-29T19:05:35;16.60;99.90
21830;DHT22;11077;50.264;6.798;2023-05-29T19:08:02;16.50;99.90
21830;DHT22;11077;50.264;6.798;2023-05-29T19:10:33;16.50;99.90
21830;DHT22;11077;50.264;6.798;2023-05-29T19:13:00;16.40;99.90
21830;DHT22;11077;50.264;6.798;2023-05-29T19:15:27;16.40;99.90
21830;DHT22;11077;50.264;6.798;2023-05-29T19:17:56;16.30;99.90
21830;DHT22;11077;50.264;6.798;2023-05-29T19:20:24;16.20;99.90
21830;DHT22;11077;50.264;6.798;2023-05-29T19:22:53;16.10;99.90
21830;DHT22;11077;50.264;6.798;2023-05-29T19:25:21;16.00;99.90
21830;DHT22;11077;50.264;6.798;2023-05-29T19:27:49;16.00;99.90
21830;DHT22;11077;50.264;6.798;2023-05-29T19:30:18;15.90;99.90
21830;DHT22;11077;50.264;6.798;2023-05-29T19:32:45;15.80;99.90
21830;DHT22;11077;50.264;6.798;2023-05-29T19:35:12;15.70;99.90
21830;DHT22;11077;50.264;6.798;2023-05-29T19:37:40;15.70;99.90
21830;DHT22;11077;50.264;6.798;2023-05-29T19:40:09;15.60;99.90
21830;DHT22;11077;50.264;6.798;2023-05-29T19:42:37;15.60;99.90
21830;DHT22;11077;50.264;6.798;2023-05-29T19:45:05;15.50;99.90
21830;DHT22;11077;50.264;6.798;2023-05-29T19:47:33;15.40;99.90
21830;DHT22;11077;50.264;6.798;2023-05-29T19:50:00;15.30;99.90
21830;DHT22;11077;50.264;6.798;2023-05-29T19:52:32;15.20;99.90
21830;DHT22;11077;50.264;6.798;2023-05-29T19:54:59;15.20;99.90
21830;DHT22;11077;50.264;6.798;2023-05-29T19:57:28;15.10;99.90
21830;DHT22;11077;50.264;6.798;2023-05-29T19:59:56;15.10;99.90
21830;DHT22;11077;50.264;6.798;2023-05-29T20:02:25;15.00;99.90
21830;DHT22;11077;50.264;6.798;2023-05-29T20:04:58;14.90;99.90
21830;DHT22;11077;50.264;6.798;2023-05-29T20:07:25;14.90;99.90